Ostend Airport 2019/04/26 05:50 EBOS 260550Z 19007KT 9999 FEW045 08/06 Q1011 NOSIG

Lille Airport 2019/04/26 05:30 LFQQ 260530Z AUTO 15003KT 9000 NSC 06/06 Q1011

Brussels Airport 2019/04/26 05:50 EBBR 260550Z 23009KT 9999 FEW046 09/07 Q1011 NOSIG